sensor_id;sensor_type;location;lat;lon;timestamp;P1;durP1;ratioP1;P2;durP2;ratioP2
19038;SDS011;9652;49.014;12.052;2022-09-01T00:01:45;5.20;;;4.70;;
19038;SDS011;9652;49.014;12.052;2022-09-01T00:04:16;5.57;;;5.07;;
19038;SDS011;9652;49.014;12.052;2022-09-01T00:06:47;5.53;;;4.77;;
19038;SDS011;9652;49.014;12.052;2022-09-01T00:09:16;5.90;;;5.10;;
19038;SDS011;9652;49.014;12.052;2022-09-01T00:11:45;5.47;;;4.97;;
19038;SDS011;9652;49.014;12.052;2022-09-01T00:14:16;5.40;;;4.87;;
19038;SDS011;9652;49.014;12.052;2022-09-01T00:16:46;6.97;;;5.43;;
19038;SDS011;9652;49.014;12.052;2022-09-01T00:19:13;5.97;;;5.37;;
19038;SDS011;9652;49.014;12.052;2022-09-01T00:21:41;6.37;;;5.67;;
19038;SDS011;9652;49.014;12.052;2022-09-01T00:24:13;5.30;;;4.80;;
19038;SDS011;9652;49.014;12.052;2022-09-01T00:26:42;5.37;;;4.80;;
19038;SDS011;9652;49.014;12.052;2022-09-01T00:29:10;5.87;;;5.23;;
19038;SDS011;9652;49.014;12.052;2022-09-01T00:31:38;6.13;;;5.00;;
19038;SDS011;9652;49.014;12.052;2022-09-01T00:34:06;6.03;;;4.90;;
19038;SDS011;9652;49.014;12.052;2022-09-01T00:36:33;6.10;;;5.10;;
19038;SDS011;9652;49.014;12.052;2022-09-01T00:39:01;6.07;;;5.47;;
19038;SDS011;9652;49.014;12.052;2022-09-01T00:41:32;6.13;;;5.53;;
19038;SDS011;9652;49.014;12.052;2022-09-01T00:44:03;6.13;;;4.77;;
19038;SDS011;9652;49.014;12.052;2022-09-01T00:46:35;7.20;;;5.37;;
19038;SDS011;9652;49.014;12.052;2022-09-01T00:49:07;5.40;;;4.90;;
19038;SDS011;9652;49.014;12.052;2022-09-01T00:51:39;5.70;;;4.73;;
19038;SDS011;9652;49.014;12.052;2022-09-01T00:54:12;6.07;;;5.20;;
19038;SDS011;9652;49.014;12.052;2022-09-01T00:56:48;5.73;;;4.77;;
19038;SDS011;9652;49.014;12.052;2022-09-01T00:59:16;6.70;;;5.87;;
19038;SDS011;9652;49.014;12.052;2022-09-01T01:01:46;5.77;;;5.10;;
19038;SDS011;9652;49.014;12.052;2022-09-01T01:04:13;7.27;;;5.73;;
19038;SDS011;9652;49.014;12.052;2022-09-01T01:06:41;6.53;;;5.77;;
19038;SDS011;9652;49.014;12.052;2022-09-01T01:09:14;8.60;;;4.90;;
19038;SDS011;9652;49.014;12.052;2022-09-01T01:11:42;7.30;;;5.17;;
19038;SDS011;9652;49.014;12.052;2022-09-01T01:14:13;5.63;;;5.10;;
19038;SDS011;9652;49.014;12.052;2022-09-01T01:16:44;4.90;;;4.40;;
19038;SDS011;9652;49.014;12.052;2022-09-01T01:19:15;5.30;;;4.67;;
19038;SDS011;9652;49.014;12.052;2022-09-01T01:22:09;5.40;;;4.90;;
19038;SDS011;9652;49.014;12.052;2022-09-01T01:25:03;5.33;;;4.83;;
19038;SDS011;9652;49.014;12.052;2022-09-01T01:27:32;4.80;;;4.30;;
19038;SDS011;9652;49.014;12.052;2022-09-01T01:30:02;5.37;;;4.80;;
19038;SDS011;9652;49.014;12.052;2022-09-01T01:32:34;6.17;;;5.03;;
19038;SDS011;9652;49.014;12.052;2022-09-01T01:35:02;6.10;;;4.80;;
19038;SDS011;9652;49.014;12.052;2022-09-01T01:37:32;4.77;;;4.27;;
19038;SDS011;9652;49.014;12.052;2022-09-01T01:40:01;5.37;;;4.70;;
19038;SDS011;9652;49.014;12.052;2022-09-01T01:42:31;5.13;;;4.40;;
19038;SDS011;9652;49.014;12.052;2022-09-01T01:44:58;5.17;;;4.67;;
19038;SDS011;9652;49.014;12.052;2022-09-01T01:47:25;6.20;;;5.17;;
19038;SDS011;9652;49.014;12.052;2022-09-01T01:49:53;5.67;;;4.87;;
19038;SDS011;9652;49.014;12.052;2022-09-01T01:52:21;5.67;;;4.60;;
19038;SDS011;9652;49.014;12.052;2022-09-01T01:54:49;4.77;;;4.20;;
19038;SDS011;9652;49.014;12.052;2022-09-01T01:57:17;5.10;;;4.07;;
19038;SDS011;9652;49.014;12.052;2022-09-01T01:59:44;5.10;;;4.60;;
19038;SDS011;9652;49.014;12.052;2022-09-01T02:02:11;5.40;;;4.73;;
19038;SDS011;9652;49.014;12.052;2022-09-01T02:04:38;5.23;;;4.60;;
19038;SDS011;9652;49.014;12.052;2022-09-01T02:07:09;5.10;;;4.57;;
19038;SDS011;9652;49.014;12.052;2022-09-01T02:09:38;6.23;;;4.20;;
19038;SDS011;9652;49.014;12.052;2022-09-01T02:12:10;5.33;;;4.50;;
19038;SDS011;9652;49.014;12.052;2022-09-01T02:14:39;5.83;;;5.20;;
19038;SDS011;9652;49.014;12.052;2022-09-01T02:17:06;5.97;;;4.93;;
19038;SDS011;9652;49.014;12.052;2022-09-01T02:19:34;5.50;;;4.63;;
19038;SDS011;9652;49.014;12.052;2022-09-01T02:22:02;5.03;;;4.57;;
19038;SDS011;9652;49.014;12.052;2022-09-01T02:24:30;5.17;;;4.67;;
19038;SDS011;9652;49.014;12.052;2022-09-01T02:26:57;5.10;;;4.60;;
19038;SDS011;9652;49.014;12.052;2022-09-01T02:29:26;6.00;;;4.97;;
19038;SDS011;9652;49.014;12.052;2022-09-01T02:31:55;5.93;;;5.33;;
19038;SDS011;9652;49.014;12.052;2022-09-01T02:34:24;6.13;;;5.27;;
19038;SDS011;9652;49.014;12.052;2022-09-01T02:36:53;6.00;;;5.40;;
19038;SDS011;9652;49.014;12.052;2022-09-01T02:39:24;5.67;;;5.00;;
19038;SDS011;9652;49.014;12.052;2022-09-01T02:41:53;6.43;;;5.40;;
19038;SDS011;9652;49.014;12.052;2022-09-01T02:44:25;6.33;;;5.47;;
19038;SDS011;9652;49.014;12.052;2022-09-01T02:46:53;6.80;;;5.73;;
19038;SDS011;9652;49.014;12.052;2022-09-01T02:49:24;7.03;;;5.13;;
19038;SDS011;9652;49.014;12.052;2022-09-01T02:51:53;7.57;;;5.50;;
19038;SDS011;9652;49.014;12.052;2022-09-01T02:54:24;6.27;;;5.63;;
19038;SDS011;9652;49.014;12.052;2022-09-01T02:56:53;8.90;;;5.93;;
19038;SDS011;9652;49.014;12.052;2022-09-01T02:59:24;8.43;;;5.60;;
19038;SDS011;9652;49.014;12.052;2022-09-01T03:01:58;6.83;;;5.80;;
19038;SDS011;9652;49.014;12.052;2022-09-01T03:04:26;6.37;;;5.77;;
19038;SDS011;9652;49.014;12.052;2022-09-01T03:06:59;8.33;;;5.67;;
19038;SDS011;9652;49.014;12.052;2022-09-01T03:09:27;7.20;;;6.23;;
19038;SDS011;9652;49.014;12.052;2022-09-01T03:11:54;7.10;;;6.17;;
19038;SDS011;9652;49.014;12.052;2022-09-01T03:14:23;6.70;;;5.83;;
19038;SDS011;9652;49.014;12.052;2022-09-01T03:16:52;6.40;;;5.73;;
19038;SDS011;9652;49.014;12.052;2022-09-01T03:19:20;6.57;;;5.80;;
19038;SDS011;9652;49.014;12.052;2022-09-01T03:21:48;6.87;;;6.17;;
19038;SDS011;9652;49.014;12.052;2022-09-01T03:24:19;7.50;;;6.37;;
19038;SDS011;9652;49.014;12.052;2022-09-01T03:26:49;8.23;;;6.13;;
19038;SDS011;9652;49.014;12.052;2022-09-01T03:29:17;7.33;;;6.00;;
19038;SDS011;9652;49.014;12.052;2022-09-01T03:31:45;7.03;;;6.33;;
19038;SDS011;9652;49.014;12.052;2022-09-01T03:34:13;7.03;;;6.33;;
19038;SDS011;9652;49.014;12.052;2022-09-01T03:36:46;7.83;;;5.93;;
19038;SDS011;9652;49.014;12.052;2022-09-01T03:39:18;7.07;;;6.37;;
19038;SDS011;9652;49.014;12.052;2022-09-01T03:41:46;8.43;;;6.23;;
19038;SDS011;9652;49.014;12.052;2022-09-01T03:44:13;8.70;;;6.90;;
19038;SDS011;9652;49.014;12.052;2022-09-01T03:46:42;6.63;;;5.93;;
19038;SDS011;9652;49.014;12.052;2022-09-01T03:49:10;7.23;;;6.13;;
19038;SDS011;9652;49.014;12.052;2022-09-01T03:51:51;7.60;;;6.27;;
19038;SDS011;9652;49.014;12.052;2022-09-01T03:54:18;6.53;;;5.87;;
19038;SDS011;9652;49.014;12.052;2022-09-01T03:56:49;6.83;;;6.13;;
19038;SDS011;9652;49.014;12.052;2022-09-01T03:59:16;8.43;;;6.30;;
19038;SDS011;9652;49.014;12.052;2022-09-01T04:01:45;6.77;;;6.10;;
19038;SDS011;9652;49.014;12.052;2022-09-01T04:04:13;6.87;;;5.97;;
19038;SDS011;9652;49.014;12.052;2022-09-01T04:06:42;6.90;;;5.83;;
19038;SDS011;9652;49.014;12.052;2022-09-01T04:09:13;8.50;;;5.77;;
19038;SDS011;9652;49.014;12.052;2022-09-01T04:11:42;8.13;;;7.03;;
19038;SDS011;9652;49.014;12.052;2022-09-01T04:14:12;7.07;;;6.27;;
19038;SDS011;9652;49.014;12.052;2022-09-01T04:16:41;7.23;;;6.17;;
19038;SDS011;9652;49.014;12.052;2022-09-01T04:19:27;7.40;;;5.83;;
19038;SDS011;9652;49.014;12.052;2022-09-01T04:21:56;8.40;;;6.40;;
19038;SDS011;9652;49.014;12.052;2022-09-01T04:24:35;6.87;;;6.17;;
19038;SDS011;9652;49.014;12.052;2022-09-01T04:27:05;7.37;;;5.93;;
19038;SDS011;9652;49.014;12.052;2022-09-01T04:29:34;7.17;;;6.37;;
19038;SDS011;9652;49.014;12.052;2022-09-01T04:32:02;8.33;;;6.73;;
19038;SDS011;9652;49.014;12.052;2022-09-01T04:34:33;7.70;;;6.60;;
19038;SDS011;9652;49.014;12.052;2022-09-01T04:37:06;11.30;;;6.93;;
19038;SDS011;9652;49.014;12.052;2022-09-01T04:39:38;8.47;;;7.03;;
19038;SDS011;9652;49.014;12.052;2022-09-01T04:42:13;8.17;;;6.80;;
19038;SDS011;9652;49.014;12.052;2022-09-01T04:44:42;7.03;;;6.23;;
19038;SDS011;9652;49.014;12.052;2022-09-01T04:47:11;8.23;;;6.93;;
19038;SDS011;9652;49.014;12.052;2022-09-01T04:49:43;7.43;;;6.47;;
19038;SDS011;9652;49.014;12.052;2022-09-01T04:52:12;7.03;;;6.30;;
19038;SDS011;9652;49.014;12.052;2022-09-01T04:54:41;7.33;;;6.63;;
19038;SDS011;9652;49.014;12.052;2022-09-01T04:57:10;6.23;;;5.60;;
19038;SDS011;9652;49.014;12.052;2022-09-01T04:59:37;7.73;;;6.63;;
19038;SDS011;9652;49.014;12.052;2022-09-01T05:02:05;7.40;;;6.60;;
19038;SDS011;9652;49.014;12.052;2022-09-01T05:04:34;7.20;;;6.20;;
19038;SDS011;9652;49.014;12.052;2022-09-01T05:07:03;10.00;;;6.80;;
19038;SDS011;9652;49.014;12.052;2022-09-01T05:09:37;14.40;;;5.93;;
19038;SDS011;9652;49.014;12.052;2022-09-01T05:12:24;7.17;;;5.67;;
19038;SDS011;9652;49.014;12.052;2022-09-01T05:14:52;6.50;;;5.87;;
19038;SDS011;9652;49.014;12.052;2022-09-01T05:17:20;7.97;;;5.40;;
19038;SDS011;9652;49.014;12.052;2022-09-01T05:19:50;7.47;;;6.30;;
19038;SDS011;9652;49.014;12.052;2022-09-01T05:22:18;6.17;;;5.53;;
19038;SDS011;9652;49.014;12.052;2022-09-01T05:24:54;7.63;;;6.70;;
19038;SDS011;9652;49.014;12.052;2022-09-01T05:27:22;6.93;;;6.07;;
19038;SDS011;9652;49.014;12.052;2022-09-01T05:29:51;7.33;;;6.63;;
19038;SDS011;9652;49.014;12.052;2022-09-01T05:32:18;8.07;;;6.27;;
19038;SDS011;9652;49.014;12.052;2022-09-01T05:34:46;11.50;;;6.77;;
19038;SDS011;9652;49.014;12.052;2022-09-01T05:37:14;8.43;;;6.37;;
19038;SDS011;9652;49.014;12.052;2022-09-01T05:39:41;7.33;;;6.63;;
19038;SDS011;9652;49.014;12.052;2022-09-01T05:42:09;7.90;;;6.50;;
19038;SDS011;9652;49.014;12.052;2022-09-01T05:44:38;7.43;;;6.43;;
19038;SDS011;9652;49.014;12.052;2022-09-01T05:47:09;7.33;;;5.80;;
19038;SDS011;9652;49.014;12.052;2022-09-01T05:49:37;8.17;;;6.80;;
19038;SDS011;9652;49.014;12.052;2022-09-01T05:52:06;8.67;;;7.07;;
19038;SDS011;9652;49.014;12.052;2022-09-01T05:54:36;7.50;;;6.70;;
19038;SDS011;9652;49.014;12.052;2022-09-01T05:57:04;6.17;;;5.53;;
19038;SDS011;9652;49.014;12.052;2022-09-01T05:59:32;6.47;;;5.83;;
19038;SDS011;9652;49.014;12.052;2022-09-01T06:02:03;6.57;;;5.93;;
19038;SDS011;9652;49.014;12.052;2022-09-01T06:04:34;8.53;;;6.43;;
19038;SDS011;9652;49.014;12.052;2022-09-01T06:07:05;7.70;;;6.10;;
19038;SDS011;9652;49.014;12.052;2022-09-01T06:09:36;6.83;;;6.13;;
19038;SDS011;9652;49.014;12.052;2022-09-01T06:12:03;9.07;;;5.83;;
19038;SDS011;9652;49.014;12.052;2022-09-01T06:14:31;7.37;;;6.37;;
19038;SDS011;9652;49.014;12.052;2022-09-01T06:16:59;7.10;;;6.13;;
19038;SDS011;9652;49.014;12.052;2022-09-01T06:19:27;7.73;;;6.23;;
19038;SDS011;9652;49.014;12.052;2022-09-01T06:21:55;6.57;;;5.90;;
19038;SDS011;9652;49.014;12.052;2022-09-01T06:24:22;7.47;;;5.83;;
19038;SDS011;9652;49.014;12.052;2022-09-01T06:26:51;6.53;;;5.83;;
19038;SDS011;9652;49.014;12.052;2022-09-01T06:29:18;6.90;;;6.10;;
19038;SDS011;9652;49.014;12.052;2022-09-01T06:31:48;7.90;;;6.47;;
19038;SDS011;9652;49.014;12.052;2022-09-01T06:34:17;6.97;;;6.10;;
19038;SDS011;9652;49.014;12.052;2022-09-01T06:36:46;8.07;;;6.43;;
19038;SDS011;9652;49.014;12.052;2022-09-01T06:39:18;9.10;;;6.57;;
19038;SDS011;9652;49.014;12.052;2022-09-01T06:41:49;6.37;;;5.70;;
19038;SDS011;9652;49.014;12.052;2022-09-01T06:44:21;7.77;;;6.30;;
19038;SDS011;9652;49.014;12.052;2022-09-01T06:47:03;6.37;;;5.77;;
19038;SDS011;9652;49.014;12.052;2022-09-01T06:49:33;6.57;;;5.40;;
19038;SDS011;9652;49.014;12.052;2022-09-01T06:52:06;6.73;;;6.00;;
19038;SDS011;9652;49.014;12.052;2022-09-01T06:54:37;7.30;;;6.50;;
19038;SDS011;9652;49.014;12.052;2022-09-01T06:57:07;7.67;;;6.53;;
19038;SDS011;9652;49.014;12.052;2022-09-01T06:59:35;7.50;;;6.63;;
19038;SDS011;9652;49.014;12.052;2022-09-01T07:02:04;6.87;;;6.13;;
19038;SDS011;9652;49.014;12.052;2022-09-01T07:04:49;7.00;;;6.30;;
19038;SDS011;9652;49.014;12.052;2022-09-01T07:07:18;6.17;;;5.53;;
19038;SDS011;9652;49.014;12.052;2022-09-01T07:10:06;7.60;;;5.57;;
19038;SDS011;9652;49.014;12.052;2022-09-01T07:12:40;8.03;;;5.77;;
19038;SDS011;9652;49.014;12.052;2022-09-01T07:15:10;7.13;;;6.27;;
19038;SDS011;9652;49.014;12.052;2022-09-01T07:17:42;6.47;;;5.87;;
19038;SDS011;9652;49.014;12.052;2022-09-01T07:20:14;5.90;;;5.40;;
19038;SDS011;9652;49.014;12.052;2022-09-01T07:22:43;6.80;;;5.53;;
19038;SDS011;9652;49.014;12.052;2022-09-01T07:25:12;6.07;;;5.40;;
19038;SDS011;9652;49.014;12.052;2022-09-01T07:27:54;6.03;;;5.43;;
19038;SDS011;9652;49.014;12.052;2022-09-01T07:30:21;6.47;;;5.47;;
19038;SDS011;9652;49.014;12.052;2022-09-01T07:32:49;5.67;;;5.07;;
19038;SDS011;9652;49.014;12.052;2022-09-01T07:35:18;6.60;;;5.10;;
19038;SDS011;9652;49.014;12.052;2022-09-01T07:37:49;6.43;;;5.50;;
19038;SDS011;9652;49.014;12.052;2022-09-01T07:40:18;5.97;;;5.37;;
19038;SDS011;9652;49.014;12.052;2022-09-01T07:43:05;5.53;;;4.80;;
19038;SDS011;9652;49.014;12.052;2022-09-01T07:46:02;8.17;;;4.33;;
19038;SDS011;9652;49.014;12.052;2022-09-01T07:48:31;4.93;;;4.43;;
19038;SDS011;9652;49.014;12.052;2022-09-01T07:50:59;5.27;;;4.77;;
19038;SDS011;9652;49.014;12.052;2022-09-01T07:53:29;5.23;;;4.73;;
19038;SDS011;9652;49.014;12.052;2022-09-01T07:56:03;4.97;;;4.47;;
19038;SDS011;9652;49.014;12.052;2022-09-01T07:58:37;7.57;;;4.77;;
19038;SDS011;9652;49.014;12.052;2022-09-01T08:01:07;4.83;;;4.07;;
19038;SDS011;9652;49.014;12.052;2022-09-01T08:03:38;6.17;;;4.57;;
19038;SDS011;9652;49.014;12.052;2022-09-01T08:06:07;8.03;;;4.57;;
19038;SDS011;9652;49.014;12.052;2022-09-01T08:08:37;6.00;;;4.80;;
19038;SDS011;9652;49.014;12.052;2022-09-01T08:11:07;5.60;;;5.10;;
19038;SDS011;9652;49.014;12.052;2022-09-01T08:13:35;5.90;;;5.20;;
19038;SDS011;9652;49.014;12.052;2022-09-01T08:16:05;5.20;;;4.70;;
19038;SDS011;9652;49.014;12.052;2022-09-01T08:18:33;4.57;;;4.17;;
19038;SDS011;9652;49.014;12.052;2022-09-01T08:21:04;4.33;;;3.93;;
19038;SDS011;9652;49.014;12.052;2022-09-01T08:23:53;5.27;;;3.60;;
19038;SDS011;9652;49.014;12.052;2022-09-01T08:26:24;4.70;;;4.20;;
19038;SDS011;9652;49.014;12.052;2022-09-01T08:28:53;4.70;;;3.83;;
19038;SDS011;9652;49.014;12.052;2022-09-01T08:31:27;4.67;;;4.23;;
19038;SDS011;9652;49.014;12.052;2022-09-01T08:33:55;4.50;;;4.10;;
19038;SDS011;9652;49.014;12.052;2022-09-01T08:36:22;4.63;;;4.20;;
19038;SDS011;9652;49.014;12.052;2022-09-01T08:38:50;5.03;;;4.00;;
19038;SDS011;9652;49.014;12.052;2022-09-01T08:41:21;5.17;;;3.60;;
19038;SDS011;9652;49.014;12.052;2022-09-01T08:44:06;6.00;;;3.53;;
19038;SDS011;9652;49.014;12.052;2022-09-01T08:46:45;3.90;;;3.50;;
19038;SDS011;9652;49.014;12.052;2022-09-01T08:49:15;4.30;;;3.47;;
19038;SDS011;9652;49.014;12.052;2022-09-01T08:52:13;3.77;;;3.33;;
19038;SDS011;9652;49.014;12.052;2022-09-01T08:54:51;5.63;;;4.30;;
19038;SDS011;9652;49.014;12.052;2022-09-01T08:57:30;5.13;;;3.87;;
19038;SDS011;9652;49.014;12.052;2022-09-01T09:00:19;4.50;;;3.67;;
19038;SDS011;9652;49.014;12.052;2022-09-01T09:02:56;4.13;;;3.53;;
19038;SDS011;9652;49.014;12.052;2022-09-01T09:05:42;4.40;;;3.50;;
19038;SDS011;9652;49.014;12.052;2022-09-01T09:08:36;3.80;;;3.50;;
19038;SDS011;9652;49.014;12.052;2022-09-01T09:11:22;4.57;;;3.60;;
19038;SDS011;9652;49.014;12.052;2022-09-01T09:14:09;3.97;;;3.33;;
19038;SDS011;9652;49.014;12.052;2022-09-01T09:16:52;3.17;;;2.80;;
19038;SDS011;9652;49.014;12.052;2022-09-01T09:19:22;3.73;;;3.40;;
19038;SDS011;9652;49.014;12.052;2022-09-01T09:21:54;3.37;;;3.07;;
19038;SDS011;9652;49.014;12.052;2022-09-01T09:24:25;4.00;;;3.60;;
19038;SDS011;9652;49.014;12.052;2022-09-01T09:27:14;3.67;;;3.37;;
19038;SDS011;9652;49.014;12.052;2022-09-01T09:29:46;4.57;;;3.50;;
19038;SDS011;9652;49.014;12.052;2022-09-01T09:32:16;4.43;;;3.50;;
19038;SDS011;9652;49.014;12.052;2022-09-01T09:34:44;5.33;;;3.40;;
19038;SDS011;9652;49.014;12.052;2022-09-01T09:37:16;3.50;;;3.20;;
19038;SDS011;9652;49.014;12.052;2022-09-01T09:40:02;4.63;;;3.30;;
19038;SDS011;9652;49.014;12.052;2022-09-01T09:42:34;3.53;;;3.07;;
19038;SDS011;9652;49.014;12.052;2022-09-01T09:45:05;5.00;;;2.73;;
19038;SDS011;9652;49.014;12.052;2022-09-01T09:47:51;3.20;;;2.90;;
19038;SDS011;9652;49.014;12.052;2022-09-01T09:50:22;6.77;;;2.83;;
19038;SDS011;9652;49.014;12.052;2022-09-01T09:52:58;3.67;;;2.93;;
19038;SDS011;9652;49.014;12.052;2022-09-01T09:55:54;3.40;;;3.10;;
19038;SDS011;9652;49.014;12.052;2022-09-01T09:58:27;3.00;;;2.70;;
19038;SDS011;9652;49.014;12.052;2022-09-01T10:01:04;3.07;;;2.47;;
19038;SDS011;9652;49.014;12.052;2022-09-01T10:03:40;3.20;;;2.70;;
19038;SDS011;9652;49.014;12.052;2022-09-01T10:06:15;3.70;;;2.60;;
19038;SDS011;9652;49.014;12.052;2022-09-01T10:08:59;3.20;;;2.70;;
19038;SDS011;9652;49.014;12.052;2022-09-01T10:11:30;3.33;;;2.63;;
19038;SDS011;9652;49.014;12.052;2022-09-01T10:14:04;2.80;;;2.40;;
19038;SDS011;9652;49.014;12.052;2022-09-01T10:16:37;3.40;;;2.47;;
19038;SDS011;9652;49.014;12.052;2022-09-01T10:19:09;3.13;;;2.40;;
19038;SDS011;9652;49.014;12.052;2022-09-01T10:21:40;2.60;;;2.40;;
19038;SDS011;9652;49.014;12.052;2022-09-01T10:24:13;3.20;;;2.60;;
19038;SDS011;9652;49.014;12.052;2022-09-01T10:26:49;2.67;;;2.47;;
19038;SDS011;9652;49.014;12.052;2022-09-01T10:29:22;2.47;;;1.90;;
19038;SDS011;9652;49.014;12.052;2022-09-01T10:31:58;4.03;;;2.43;;
19038;SDS011;9652;49.014;12.052;2022-09-01T10:34:30;2.10;;;1.87;;
19038;SDS011;9652;49.014;12.052;2022-09-01T10:37:02;3.63;;;2.53;;
19038;SDS011;9652;49.014;12.052;2022-09-01T10:39:31;2.53;;;2.33;;
19038;SDS011;9652;49.014;12.052;2022-09-01T10:41:59;3.90;;;2.47;;
19038;SDS011;9652;49.014;12.052;2022-09-01T10:44:33;3.40;;;2.60;;
19038;SDS011;9652;49.014;12.052;2022-09-01T10:47:07;3.63;;;2.00;;
19038;SDS011;9652;49.014;12.052;2022-09-01T10:49:56;3.50;;;2.13;;
19038;SDS011;9652;49.014;12.052;2022-09-01T10:55:35;2.87;;;2.23;;
19038;SDS011;9652;49.014;12.052;2022-09-01T10:58:23;3.17;;;2.60;;
19038;SDS011;9652;49.014;12.052;2022-09-01T11:07:40;2.43;;;2.23;;
19038;SDS011;9652;49.014;12.052;2022-09-01T11:10:13;2.50;;;2.27;;
19038;SDS011;9652;49.014;12.052;2022-09-01T11:13:08;2.70;;;2.50;;
19038;SDS011;9652;49.014;12.052;2022-09-01T11:16:01;2.47;;;1.97;;
19038;SDS011;9652;49.014;12.052;2022-09-01T11:19:20;2.20;;;2.00;;
19038;SDS011;9652;49.014;12.052;2022-09-01T11:22:10;2.40;;;2.20;;
19038;SDS011;9652;49.014;12.052;2022-09-01T11:24:51;2.10;;;1.90;;
19038;SDS011;9652;49.014;12.052;2022-09-01T11:28:04;2.33;;;2.13;;
19038;SDS011;9652;49.014;12.052;2022-09-01T11:31:03;3.10;;;2.03;;
19038;SDS011;9652;49.014;12.052;2022-09-01T11:34:11;1.93;;;1.83;;
19038;SDS011;9652;49.014;12.052;2022-09-01T11:36:50;4.47;;;1.70;;
19038;SDS011;9652;49.014;12.052;2022-09-01T11:39:27;2.33;;;2.07;;
19038;SDS011;9652;49.014;12.052;2022-09-01T11:42:05;3.70;;;2.13;;
19038;SDS011;9652;49.014;12.052;2022-09-01T11:44:40;2.67;;;1.83;;
19038;SDS011;9652;49.014;12.052;2022-09-01T11:47:15;1.60;;;1.50;;
19038;SDS011;9652;49.014;12.052;2022-09-01T11:49:48;1.80;;;1.60;;
19038;SDS011;9652;49.014;12.052;2022-09-01T11:52:19;2.30;;;1.60;;
19038;SDS011;9652;49.014;12.052;2022-09-01T11:54:50;1.63;;;1.40;;
19038;SDS011;9652;49.014;12.052;2022-09-01T11:57:20;1.60;;;1.50;;
19038;SDS011;9652;49.014;12.052;2022-09-01T11:59:52;2.33;;;1.70;;
19038;SDS011;9652;49.014;12.052;2022-09-01T12:02:21;1.83;;;1.43;;
19038;SDS011;9652;49.014;12.052;2022-09-01T12:04:53;2.43;;;1.57;;
19038;SDS011;9652;49.014;12.052;2022-09-01T12:07:34;2.70;;;1.40;;
19038;SDS011;9652;49.014;12.052;2022-09-01T12:10:14;1.87;;;1.43;;
19038;SDS011;9652;49.014;12.052;2022-09-01T12:12:47;1.70;;;1.33;;
19038;SDS011;9652;49.014;12.052;2022-09-01T12:15:23;1.80;;;1.70;;
19038;SDS011;9652;49.014;12.052;2022-09-01T12:17:59;1.40;;;1.30;;
19038;SDS011;9652;49.014;12.052;2022-09-01T12:20:39;2.40;;;1.23;;
19038;SDS011;9652;49.014;12.052;2022-09-01T12:23:14;2.10;;;1.60;;
19038;SDS011;9652;49.014;12.052;2022-09-01T12:25:49;1.70;;;1.40;;
19038;SDS011;9652;49.014;12.052;2022-09-01T12:28:19;2.23;;;1.40;;
19038;SDS011;9652;49.014;12.052;2022-09-01T12:30:49;2.30;;;1.70;;
19038;SDS011;9652;49.014;12.052;2022-09-01T12:33:17;3.97;;;1.60;;
19038;SDS011;9652;49.014;12.052;2022-09-01T12:35:47;1.30;;;1.20;;
19038;SDS011;9652;49.014;12.052;2022-09-01T12:38:21;2.10;;;1.53;;
19038;SDS011;9652;49.014;12.052;2022-09-01T12:40:54;2.07;;;1.50;;
19038;SDS011;9652;49.014;12.052;2022-09-01T12:43:26;2.00;;;1.80;;
19038;SDS011;9652;49.014;12.052;2022-09-01T12:46:01;1.90;;;1.43;;
19038;SDS011;9652;49.014;12.052;2022-09-01T12:48:31;6.30;;;1.73;;
19038;SDS011;9652;49.014;12.052;2022-09-01T12:51:03;1.30;;;1.20;;
19038;SDS011;9652;49.014;12.052;2022-09-01T12:53:48;1.70;;;1.20;;
19038;SDS011;9652;49.014;12.052;2022-09-01T12:56:20;1.67;;;1.17;;
19038;SDS011;9652;49.014;12.052;2022-09-01T12:59:02;1.33;;;1.00;;
19038;SDS011;9652;49.014;12.052;2022-09-01T13:01:34;1.20;;;1.10;;
19038;SDS011;9652;49.014;12.052;2022-09-01T13:04:11;1.17;;;1.00;;
19038;SDS011;9652;49.014;12.052;2022-09-01T13:06:50;0.73;;;0.73;;
19038;SDS011;9652;49.014;12.052;2022-09-01T13:09:18;2.43;;;1.20;;
19038;SDS011;9652;49.014;12.052;2022-09-01T13:11:46;1.40;;;1.13;;
19038;SDS011;9652;49.014;12.052;2022-09-01T13:14:13;1.67;;;1.23;;
19038;SDS011;9652;49.014;12.052;2022-09-01T13:16:41;1.13;;;1.00;;
19038;SDS011;9652;49.014;12.052;2022-09-01T13:19:08;1.33;;;1.20;;
19038;SDS011;9652;49.014;12.052;2022-09-01T13:21:35;1.50;;;1.40;;
19038;SDS011;9652;49.014;12.052;2022-09-01T13:24:04;1.67;;;1.57;;
19038;SDS011;9652;49.014;12.052;2022-09-01T13:26:32;1.80;;;1.43;;
19038;SDS011;9652;49.014;12.052;2022-09-01T13:28:59;2.20;;;1.30;;
19038;SDS011;9652;49.014;12.052;2022-09-01T13:31:26;1.83;;;1.30;;
19038;SDS011;9652;49.014;12.052;2022-09-01T13:33:55;4.03;;;1.43;;
19038;SDS011;9652;49.014;12.052;2022-09-01T13:36:24;1.73;;;1.20;;
19038;SDS011;9652;49.014;12.052;2022-09-01T13:38:51;2.13;;;1.50;;
19038;SDS011;9652;49.014;12.052;2022-09-01T13:41:19;1.73;;;1.47;;
19038;SDS011;9652;49.014;12.052;2022-09-01T13:43:46;1.97;;;1.20;;
19038;SDS011;9652;49.014;12.052;2022-09-01T13:46:13;1.80;;;1.40;;
19038;SDS011;9652;49.014;12.052;2022-09-01T13:48:41;1.30;;;1.20;;
19038;SDS011;9652;49.014;12.052;2022-09-01T13:51:08;1.43;;;1.10;;
19038;SDS011;9652;49.014;12.052;2022-09-01T13:53:35;1.37;;;1.27;;
19038;SDS011;9652;49.014;12.052;2022-09-01T13:56:03;2.03;;;1.13;;
19038;SDS011;9652;49.014;12.052;2022-09-01T13:58:32;2.33;;;1.13;;
19038;SDS011;9652;49.014;12.052;2022-09-01T14:00:59;1.63;;;1.20;;
19038;SDS011;9652;49.014;12.052;2022-09-01T14:03:26;1.35;;;1.25;;
19038;SDS011;9652;49.014;12.052;2022-09-01T14:05:56;1.10;;;1.00;;
19038;SDS011;9652;49.014;12.052;2022-09-01T14:08:24;1.20;;;1.00;;
19038;SDS011;9652;49.014;12.052;2022-09-01T14:10:51;1.33;;;1.23;;
19038;SDS011;9652;49.014;12.052;2022-09-01T14:13:20;2.07;;;1.20;;
19038;SDS011;9652;49.014;12.052;2022-09-01T14:15:51;2.13;;;1.13;;
19038;SDS011;9652;49.014;12.052;2022-09-01T14:18:19;1.57;;;1.20;;
19038;SDS011;9652;49.014;12.052;2022-09-01T14:20:49;1.90;;;0.90;;
19038;SDS011;9652;49.014;12.052;2022-09-01T14:23:18;1.23;;;1.10;;
19038;SDS011;9652;49.014;12.052;2022-09-01T14:25:47;1.73;;;1.20;;
19038;SDS011;9652;49.014;12.052;2022-09-01T14:28:16;1.30;;;1.20;;
19038;SDS011;9652;49.014;12.052;2022-09-01T14:30:45;1.90;;;1.30;;
19038;SDS011;9652;49.014;12.052;2022-09-01T14:33:15;1.30;;;1.20;;
19038;SDS011;9652;49.014;12.052;2022-09-01T14:35:48;1.63;;;1.30;;
19038;SDS011;9652;49.014;12.052;2022-09-01T14:38:15;1.35;;;1.20;;
19038;SDS011;9652;49.014;12.052;2022-09-01T14:40:45;1.33;;;1.23;;
19038;SDS011;9652;49.014;12.052;2022-09-01T14:43:16;1.53;;;1.20;;
19038;SDS011;9652;49.014;12.052;2022-09-01T14:45:44;1.67;;;1.10;;
19038;SDS011;9652;49.014;12.052;2022-09-01T14:48:12;2.40;;;1.10;;
19038;SDS011;9652;49.014;12.052;2022-09-01T14:50:44;1.97;;;1.17;;
19038;SDS011;9652;49.014;12.052;2022-09-01T14:53:14;1.20;;;1.10;;
19038;SDS011;9652;49.014;12.052;2022-09-01T14:55:43;2.78;;;1.10;;
19038;SDS011;9652;49.014;12.052;2022-09-01T14:58:10;1.60;;;1.00;;
19038;SDS011;9652;49.014;12.052;2022-09-01T15:00:38;1.98;;;0.90;;
19038;SDS011;9652;49.014;12.052;2022-09-01T15:03:06;1.20;;;1.10;;
19038;SDS011;9652;49.014;12.052;2022-09-01T15:05:35;1.60;;;1.00;;
19038;SDS011;9652;49.014;12.052;2022-09-01T15:08:04;1.35;;;1.25;;
19038;SDS011;9652;49.014;12.052;2022-09-01T15:10:31;1.30;;;1.10;;
19038;SDS011;9652;49.014;12.052;2022-09-01T15:12:59;1.33;;;1.23;;
19038;SDS011;9652;49.014;12.052;2022-09-01T15:15:27;2.20;;;1.17;;
19038;SDS011;9652;49.014;12.052;2022-09-01T15:17:55;1.80;;;1.33;;
19038;SDS011;9652;49.014;12.052;2022-09-01T15:20:22;1.30;;;1.13;;
19038;SDS011;9652;49.014;12.052;2022-09-01T15:23:09;3.72;;;1.25;;
19038;SDS011;9652;49.014;12.052;2022-09-01T15:25:36;1.00;;;0.90;;
19038;SDS011;9652;49.014;12.052;2022-09-01T15:28:04;2.97;;;1.55;;